Gil Vicente — CSKG — position and weather

sailwx.info

Track history (hours):
 
Tides and Currents Weather Stations Pressure Air Temp Water Temp Dewpoint Dewpoint Depression Visibility Wind Speed Wind Dir Waves Ship Positions

Gil Vicente

Last reported at 2015-Aug-27 23:33 UTC. Time now 2015-Aug-28 00:15 UTC.
Position N 38°39' W 009°05'.

Length 49 m.

Type: Passenger vessel. MMSI: 263701390.

Date/timePositionNaut miles runAvg speedWind from/ knotsBaromVisibWave heightAir tempDewpointWater temp
2015-Aug-27 23:33N 38°39' W 009°05'4 4.1
2015-Aug-27 22:33N 38°42' W 009°08'1 1.2
2015-Aug-27 21:34N 38°41' W 009°08'0 0.2
2015-Aug-27 20:33N 38°41' W 009°08'3 3.0
2015-Aug-27 19:33N 38°39' W 009°05'0 0.1
2015-Aug-27 18:33N 38°39' W 009°05'1 1.0
2015-Aug-27 17:33N 38°39' W 009°06'3 3.2
2015-Aug-27 16:33N 38°42' W 009°08'0 0.2
2015-Aug-27 15:33N 38°42' W 009°08'1 0.9
2015-Aug-27 14:33N 38°41' W 009°08'0 0.1
2015-Aug-27 13:33N 38°41' W 009°08'0 0.0
2015-Aug-27 12:33N 38°41' W 009°08'0 0.1
2015-Aug-27 11:33N 38°41' W 009°08'0 0.2
2015-Aug-27 10:33N 38°41' W 009°08'3 3.1
2015-Aug-27 09:33N 38°39' W 009°05'1 1.2
2015-Aug-27 08:33N 38°40' W 009°06'3 3.0
2015-Aug-27 07:34N 38°42' W 009°08'0 0.3
2015-Aug-27 06:34N 38°42' W 009°08'4 4.0
2015-Aug-27 05:32N 38°39' W 009°05'4 0.3
2015-Aug-26 18:33N 38°42' W 009°08'1 0.6
2015-Aug-26 17:34N 38°42' W 009°08'3 2.5
2015-Aug-26 16:33N 38°40' W 009°07'2 1.6
2015-Aug-26 15:34N 38°39' W 009°05'1 1.1
2015-Aug-26 14:33N 38°40' W 009°06'1 1.5
2015-Aug-26 13:33N 38°39' W 009°05'0 0.0
2015-Aug-26 12:33N 38°39' W 009°05'0 0.0
2015-Aug-26 11:33N 38°39' W 009°05'0 0.0
2015-Aug-26 10:33N 38°39' W 009°05'1 1.4
2015-Aug-26 09:34N 38°40' W 009°06'0 0.5
2015-Aug-26 08:34N 38°39' W 009°06'3 3.4
2015-Aug-26 07:33N 38°42' W 009°08'0 0.3
2015-Aug-26 06:33N 38°42' W 009°08'4 3.8
2015-Aug-26 05:30N 38°39' W 009°05'4 0.4
2015-Aug-25 19:33N 38°42' W 009°08'1 0.6
2015-Aug-25 18:33N 38°42' W 009°08'4 4.1
2015-Aug-25 17:33N 38°39' W 009°05'0 0.0
2015-Aug-25 16:33N 38°39' W 009°05'4 3.7
2015-Aug-25 15:33N 38°42' W 009°08'1 1.5
2015-Aug-25 14:33N 38°41' W 009°08'0 0.3
2015-Aug-25 13:33N 38°41' W 009°08'0 0.2
2015-Aug-25 12:33N 38°41' W 009°08'0 0.3
2015-Aug-25 11:33N 38°41' W 009°08'0 0.1
2015-Aug-25 10:33N 38°41' W 009°08'3 3.1
2015-Aug-25 09:33N 38°39' W 009°05'4 4.2
2015-Aug-25 08:33N 38°42' W 009°08'0 0.1
2015-Aug-25 07:33N 38°42' W 009°08'2 2.5
2015-Aug-25 06:34N 38°40' W 009°07'2 1.8
2015-Aug-25 05:32N 38°39' W 009°05'4 0.4
2015-Aug-24 18:33N 38°42' W 009°08'0 0.2
2015-Aug-24 17:34N 38°42' W 009°08'3 2.5
2015-Aug-24 16:33N 38°40' W 009°07'2 1.6
2015-Aug-24 15:33N 38°39' W 009°05'1 0.6
2015-Aug-24 14:33N 38°40' W 009°06'1 0.2
2015-Aug-24 10:33N 38°39' W 009°05'1 1.4
2015-Aug-24 09:33N 38°40' W 009°06'0 0.1
2015-Aug-24 08:33N 38°40' W 009°06'0 0.1
2015-Aug-24 07:33N 38°40' W 009°07'2 1.7
2015-Aug-24 06:33N 38°39' W 009°05'0 0.0
2015-Aug-24 05:33N 38°39' W 009°05'3 0.3
2015-Aug-23 20:33N 38°41' W 009°07'3 2.7
2015-Aug-23 19:32N 38°39' W 009°05'2 1.8
2015-Aug-23 18:33N 38°40' W 009°07'0 0.2
2015-Aug-23 17:33N 38°40' W 009°06'0 0.1
2015-Aug-23 16:33N 38°40' W 009°06'0 0.1
2015-Aug-23 15:34N 38°40' W 009°06'0 0.0
2015-Aug-23 14:33N 38°40' W 009°06'0 0.1
2015-Aug-23 13:33N 38°40' W 009°06'0 0.2
2015-Aug-23 12:33N 38°40' W 009°06'2 0.3
2015-Aug-23 06:33N 38°39' W 009°05'1 0.6
2015-Aug-23 05:33N 38°39' W 009°05'1 0.6
2015-Aug-23 04:33N 38°39' W 009°05'0 0.0
2015-Aug-22 23:04N 38°39' W 009°05'0 0.0
2015-Aug-21 20:03N 38°39' W 009°05'4 8.0
2015-Aug-21 19:33N 38°42' W 009°08'0 0.4
2015-Aug-21 18:33N 38°42' W 009°08'4 4.2
2015-Aug-21 17:33N 38°39' W 009°05'0 0.0
2015-Aug-21 16:33N 38°39' W 009°05'4 3.8
2015-Aug-21 15:34N 38°42' W 009°08'1 1.2
2015-Aug-21 14:33N 38°41' W 009°08'0 0.3
2015-Aug-21 13:33N 38°41' W 009°08'0 0.3
2015-Aug-21 12:33N 38°41' W 009°08'0 0.1
2015-Aug-21 11:34N 38°41' W 009°08'0 0.0
2015-Aug-21 10:34N 38°41' W 009°08'3 2.9
2015-Aug-21 09:33N 38°39' W 009°05'4 4.2
2015-Aug-21 08:33N 38°42' W 009°08'0 0.0
2015-Aug-21 07:33N 38°42' W 009°08'3 2.6
2015-Aug-21 06:33N 38°40' W 009°07'2 1.7
2015-Aug-21 05:33N 38°39' W 009°05'4 0.4
2015-Aug-20 18:33N 38°42' W 009°08'0 0.2
2015-Aug-20 17:33N 38°42' W 009°08'3 2.6
2015-Aug-20 16:33N 38°40' W 009°07'1 0.8
2015-Aug-20 15:33N 38°40' W 009°06'1 0.2
2015-Aug-20 09:23N 38°39' W 009°05'1 1.7
2015-Aug-20 08:34N 38°40' W 009°06'1 0.5
2015-Aug-20 07:33N 38°40' W 009°07'2 2.0
2015-Aug-20 06:33N 38°39' W 009°05'0 0.0
2015-Aug-20 05:33N 38°39' W 009°05'0 0.0
2015-Aug-20 04:34N 38°39' W 009°05'0 0.0
2015-Aug-20 03:33N 38°39' W 009°05'0 0.0
2015-Aug-20 02:33N 38°39' W 009°05'0 0.0
2015-Aug-20 01:33N 38°39' W 009°05'0 0.0
2015-Aug-20 00:33N 38°39' W 009°05'0 0.0
2015-Aug-19 23:33N 38°39' W 009°05'4 4.0
2015-Aug-19 22:33N 38°42' W 009°08'1 1.2
2015-Aug-19 21:33N 38°41' W 009°08'0 0.1
2015-Aug-19 20:33N 38°41' W 009°08'3 3.0
2015-Aug-19 19:33N 38°39' W 009°05'0 0.4
2015-Aug-19 18:33N 38°39' W 009°05'0 0.4
2015-Aug-19 17:33N 38°39' W 009°05'2 1.6
2015-Aug-19 16:33N 38°40' W 009°07'1 1.4
2015-Aug-19 15:33N 38°39' W 009°05'0 0.0
2015-Aug-19 08:33N 38°39' W 009°05'0 0.3
2015-Aug-19 07:33N 38°39' W 009°05'0 0.4
2015-Aug-19 06:33N 38°39' W 009°05'0 0.0
2015-Aug-19 05:33N 38°39' W 009°05'4 0.4
2015-Aug-18 19:34N 38°42' W 009°08'0 0.2
2015-Aug-18 18:33N 38°42' W 009°08'4 4.1
2015-Aug-18 17:33N 38°39' W 009°05'0 0.0
2015-Aug-18 16:34N 38°39' W 009°05'4 3.9
2015-Aug-18 15:33N 38°42' W 009°08'1 1.3
2015-Aug-18 14:33N 38°41' W 009°08'0 0.0
2015-Aug-18 13:33N 38°41' W 009°08'0 0.0
2015-Aug-18 12:33N 38°41' W 009°08'0 0.1
2015-Aug-18 11:33N 38°41' W 009°08'0 0.2
2015-Aug-18 10:33N 38°41' W 009°07'3 2.7
2015-Aug-18 09:33N 38°39' W 009°05'4 4.2
2015-Aug-18 08:33N 38°42' W 009°08'0 0.0
2015-Aug-18 07:33N 38°42' W 009°08'2 2.5
2015-Aug-18 06:34N 38°40' W 009°07'  
Track history (hours):
 
Tides and Currents Weather Stations Pressure Air Temp Water Temp Dewpoint Dewpoint Depression Visibility Wind Speed Wind Dir Waves Ship Positions

Gil Vicente

Last reported at 2015-Aug-27 23:33 UTC. Time now 2015-Aug-28 00:15 UTC.
Position N 38°39' W 009°05'.

Length 49 m.

Type: Passenger vessel. MMSI: 263701390.

Date/timePositionNaut miles runAvg speedWind from/ knotsBaromVisibWave heightAir tempDewpointWater temp
2015-Aug-27 23:33N 38°39' W 009°05'4 4.1
2015-Aug-27 22:33N 38°42' W 009°08'1 1.2
2015-Aug-27 21:34N 38°41' W 009°08'0 0.2
2015-Aug-27 20:33N 38°41' W 009°08'3 3.0
2015-Aug-27 19:33N 38°39' W 009°05'0 0.1
2015-Aug-27 18:33N 38°39' W 009°05'1 1.0
2015-Aug-27 17:33N 38°39' W 009°06'3 3.2
2015-Aug-27 16:33N 38°42' W 009°08'0 0.2
2015-Aug-27 15:33N 38°42' W 009°08'1 0.9
2015-Aug-27 14:33N 38°41' W 009°08'0 0.1
2015-Aug-27 13:33N 38°41' W 009°08'0 0.0
2015-Aug-27 12:33N 38°41' W 009°08'0 0.1
2015-Aug-27 11:33N 38°41' W 009°08'0 0.2
2015-Aug-27 10:33N 38°41' W 009°08'3 3.1
2015-Aug-27 09:33N 38°39' W 009°05'1 1.2
2015-Aug-27 08:33N 38°40' W 009°06'3 3.0
2015-Aug-27 07:34N 38°42' W 009°08'0 0.3
2015-Aug-27 06:34N 38°42' W 009°08'4 4.0
2015-Aug-27 05:32N 38°39' W 009°05'4 0.3
2015-Aug-26 18:33N 38°42' W 009°08'1 0.6
2015-Aug-26 17:34N 38°42' W 009°08'3 2.5
2015-Aug-26 16:33N 38°40' W 009°07'2 1.6
2015-Aug-26 15:34N 38°39' W 009°05'1 1.1
2015-Aug-26 14:33N 38°40' W 009°06'1 1.5
2015-Aug-26 13:33N 38°39' W 009°05'0 0.0
2015-Aug-26 12:33N 38°39' W 009°05'0 0.0
2015-Aug-26 11:33N 38°39' W 009°05'0 0.0
2015-Aug-26 10:33N 38°39' W 009°05'1 1.4
2015-Aug-26 09:34N 38°40' W 009°06'0 0.5
2015-Aug-26 08:34N 38°39' W 009°06'3 3.4
2015-Aug-26 07:33N 38°42' W 009°08'0 0.3
2015-Aug-26 06:33N 38°42' W 009°08'4 3.8
2015-Aug-26 05:30N 38°39' W 009°05'4 0.4
2015-Aug-25 19:33N 38°42' W 009°08'1 0.6
2015-Aug-25 18:33N 38°42' W 009°08'4 4.1
2015-Aug-25 17:33N 38°39' W 009°05'0 0.0
2015-Aug-25 16:33N 38°39' W 009°05'4 3.7
2015-Aug-25 15:33N 38°42' W 009°08'1 1.5
2015-Aug-25 14:33N 38°41' W 009°08'0 0.3
2015-Aug-25 13:33N 38°41' W 009°08'0 0.2
2015-Aug-25 12:33N 38°41' W 009°08'0 0.3
2015-Aug-25 11:33N 38°41' W 009°08'0 0.1
2015-Aug-25 10:33N 38°41' W 009°08'3 3.1
2015-Aug-25 09:33N 38°39' W 009°05'4 4.2
2015-Aug-25 08:33N 38°42' W 009°08'0 0.1
2015-Aug-25 07:33N 38°42' W 009°08'2 2.5
2015-Aug-25 06:34N 38°40' W 009°07'2 1.8
2015-Aug-25 05:32N 38°39' W 009°05'4 0.4
2015-Aug-24 18:33N 38°42' W 009°08'0 0.2
2015-Aug-24 17:34N 38°42' W 009°08'3 2.5
2015-Aug-24 16:33N 38°40' W 009°07'2 1.6
2015-Aug-24 15:33N 38°39' W 009°05'1 0.6
2015-Aug-24 14:33N 38°40' W 009°06'1 0.2
2015-Aug-24 10:33N 38°39' W 009°05'1 1.4
2015-Aug-24 09:33N 38°40' W 009°06'0 0.1
2015-Aug-24 08:33N 38°40' W 009°06'0 0.1
2015-Aug-24 07:33N 38°40' W 009°07'2 1.7
2015-Aug-24 06:33N 38°39' W 009°05'0 0.0
2015-Aug-24 05:33N 38°39' W 009°05'3 0.3
2015-Aug-23 20:33N 38°41' W 009°07'3 2.7
2015-Aug-23 19:32N 38°39' W 009°05'2 1.8
2015-Aug-23 18:33N 38°40' W 009°07'0 0.2
2015-Aug-23 17:33N 38°40' W 009°06'0 0.1
2015-Aug-23 16:33N 38°40' W 009°06'0 0.1
2015-Aug-23 15:34N 38°40' W 009°06'0 0.0
2015-Aug-23 14:33N 38°40' W 009°06'0 0.1
2015-Aug-23 13:33N 38°40' W 009°06'0 0.2
2015-Aug-23 12:33N 38°40' W 009°06'2 0.3
2015-Aug-23 06:33N 38°39' W 009°05'1 0.6
2015-Aug-23 05:33N 38°39' W 009°05'1 0.6
2015-Aug-23 04:33N 38°39' W 009°05'0 0.0
2015-Aug-22 23:04N 38°39' W 009°05'0 0.0
2015-Aug-21 20:03N 38°39' W 009°05'4 8.0
2015-Aug-21 19:33N 38°42' W 009°08'0 0.4
2015-Aug-21 18:33N 38°42' W 009°08'4 4.2
2015-Aug-21 17:33N 38°39' W 009°05'0 0.0
2015-Aug-21 16:33N 38°39' W 009°05'4 3.8
2015-Aug-21 15:34N 38°42' W 009°08'1 1.2
2015-Aug-21 14:33N 38°41' W 009°08'0 0.3
2015-Aug-21 13:33N 38°41' W 009°08'0 0.3
2015-Aug-21 12:33N 38°41' W 009°08'0 0.1
2015-Aug-21 11:34N 38°41' W 009°08'0 0.0
2015-Aug-21 10:34N 38°41' W 009°08'3 2.9
2015-Aug-21 09:33N 38°39' W 009°05'4 4.2
2015-Aug-21 08:33N 38°42' W 009°08'0 0.0
2015-Aug-21 07:33N 38°42' W 009°08'3 2.6
2015-Aug-21 06:33N 38°40' W 009°07'2 1.7
2015-Aug-21 05:33N 38°39' W 009°05'4 0.4
2015-Aug-20 18:33N 38°42' W 009°08'0 0.2
2015-Aug-20 17:33N 38°42' W 009°08'3 2.6
2015-Aug-20 16:33N 38°40' W 009°07'1 0.8
2015-Aug-20 15:33N 38°40' W 009°06'1 0.2
2015-Aug-20 09:23N 38°39' W 009°05'1 1.7
2015-Aug-20 08:34N 38°40' W 009°06'1 0.5
2015-Aug-20 07:33N 38°40' W 009°07'2 2.0
2015-Aug-20 06:33N 38°39' W 009°05'0 0.0
2015-Aug-20 05:33N 38°39' W 009°05'0 0.0
2015-Aug-20 04:34N 38°39' W 009°05'0 0.0
2015-Aug-20 03:33N 38°39' W 009°05'0 0.0
2015-Aug-20 02:33N 38°39' W 009°05'0 0.0
2015-Aug-20 01:33N 38°39' W 009°05'0 0.0
2015-Aug-20 00:33N 38°39' W 009°05'0 0.0
2015-Aug-19 23:33N 38°39' W 009°05'4 4.0
2015-Aug-19 22:33N 38°42' W 009°08'1 1.2
2015-Aug-19 21:33N 38°41' W 009°08'0 0.1
2015-Aug-19 20:33N 38°41' W 009°08'3 3.0
2015-Aug-19 19:33N 38°39' W 009°05'0 0.4
2015-Aug-19 18:33N 38°39' W 009°05'0 0.4
2015-Aug-19 17:33N 38°39' W 009°05'2 1.6
2015-Aug-19 16:33N 38°40' W 009°07'1 1.4
2015-Aug-19 15:33N 38°39' W 009°05'0 0.0
2015-Aug-19 08:33N 38°39' W 009°05'0 0.3
2015-Aug-19 07:33N 38°39' W 009°05'0 0.4
2015-Aug-19 06:33N 38°39' W 009°05'0 0.0
2015-Aug-19 05:33N 38°39' W 009°05'4 0.4
2015-Aug-18 19:34N 38°42' W 009°08'0 0.2
2015-Aug-18 18:33N 38°42' W 009°08'4 4.1
2015-Aug-18 17:33N 38°39' W 009°05'0 0.0
2015-Aug-18 16:34N 38°39' W 009°05'4 3.9
2015-Aug-18 15:33N 38°42' W 009°08'1 1.3
2015-Aug-18 14:33N 38°41' W 009°08'0 0.0
2015-Aug-18 13:33N 38°41' W 009°08'0 0.0
2015-Aug-18 12:33N 38°41' W 009°08'0 0.1
2015-Aug-18 11:33N 38°41' W 009°08'0 0.2
2015-Aug-18 10:33N 38°41' W 009°07'3 2.7
2015-Aug-18 09:33N 38°39' W 009°05'4 4.2
2015-Aug-18 08:33N 38°42' W 009°08'0 0.0
2015-Aug-18 07:33N 38°42' W 009°08'2 2.5
2015-Aug-18 06:34N 38°40' W 009°07'  

Dump ship's entire track history